sensor_id;sensor_type;location;lat;lon;timestamp;temperature;humidity
25154;DHT22;47555;51.038;6.280;2023-06-22T00:00:56;20.70;66.90
25154;DHT22;47555;51.038;6.280;2023-06-22T00:03:23;20.60;67.30
25154;DHT22;47555;51.038;6.280;2023-06-22T00:05:50;20.60;67.50
25154;DHT22;47555;51.038;6.280;2023-06-22T00:08:16;20.60;67.70
25154;DHT22;47555;51.038;6.280;2023-06-22T00:10:42;20.60;68.30
25154;DHT22;47555;51.038;6.280;2023-06-22T00:13:08;20.50;68.20
25154;DHT22;47555;51.038;6.280;2023-06-22T00:15:34;20.60;68.90
25154;DHT22;47555;51.038;6.280;2023-06-22T00:18:00;20.50;69.30
25154;DHT22;47555;51.038;6.280;2023-06-22T00:20:26;20.50;69.20
25154;DHT22;47555;51.038;6.280;2023-06-22T00:22:56;20.50;69.80
25154;DHT22;47555;51.038;6.280;2023-06-22T00:25:22;20.50;70.40
25154;DHT22;47555;51.038;6.280;2023-06-22T00:27:48;20.40;70.70
25154;DHT22;47555;51.038;6.280;2023-06-22T00:30:15;20.40;71.40
25154;DHT22;47555;51.038;6.280;2023-06-22T00:32:40;20.40;72.10
25154;DHT22;47555;51.038;6.280;2023-06-22T00:35:07;20.30;73.10
25154;DHT22;47555;51.038;6.280;2023-06-22T00:37:32;20.30;73.70
25154;DHT22;47555;51.038;6.280;2023-06-22T00:39:58;20.30;74.40
25154;DHT22;47555;51.038;6.280;2023-06-22T00:42:24;20.20;76.00
25154;DHT22;47555;51.038;6.280;2023-06-22T00:44:50;20.30;77.40
25154;DHT22;47555;51.038;6.280;2023-06-22T00:47:17;20.30;77.80
25154;DHT22;47555;51.038;6.280;2023-06-22T00:49:43;20.20;78.40
25154;DHT22;47555;51.038;6.280;2023-06-22T00:52:09;20.20;79.10
25154;DHT22;47555;51.038;6.280;2023-06-22T00:54:42;20.20;80.00
25154;DHT22;47555;51.038;6.280;2023-06-22T00:57:12;20.20;80.80
25154;DHT22;47555;51.038;6.280;2023-06-22T00:59:42;20.20;81.20
25154;DHT22;47555;51.038;6.280;2023-06-22T01:02:09;20.20;83.50
25154;DHT22;47555;51.038;6.280;2023-06-22T01:04:36;20.10;85.00
25154;DHT22;47555;51.038;6.280;2023-06-22T01:07:34;20.10;86.20
25154;DHT22;47555;51.038;6.280;2023-06-22T01:10:16;20.10;87.20
25154;DHT22;47555;51.038;6.280;2023-06-22T01:12:45;20.10;90.00
25154;DHT22;47555;51.038;6.280;2023-06-22T01:15:29;20.10;90.60
25154;DHT22;47555;51.038;6.280;2023-06-22T01:17:57;20.10;91.30
25154;DHT22;47555;51.038;6.280;2023-06-22T01:20:26;20.10;92.30
25154;DHT22;47555;51.038;6.280;2023-06-22T01:23:00;20.10;93.10
25154;DHT22;47555;51.038;6.280;2023-06-22T01:25:33;20.10;93.40
25154;DHT22;47555;51.038;6.280;2023-06-22T01:30:47;20.20;94.50
25154;DHT22;47555;51.038;6.280;2023-06-22T01:33:15;20.10;94.80
25154;DHT22;47555;51.038;6.280;2023-06-22T01:35:41;20.10;95.40
25154;DHT22;47555;51.038;6.280;2023-06-22T01:38:08;20.10;95.00
25154;DHT22;47555;51.038;6.280;2023-06-22T01:40:34;20.10;95.00
25154;DHT22;47555;51.038;6.280;2023-06-22T01:43:02;20.10;95.60
25154;DHT22;47555;51.038;6.280;2023-06-22T01:45:28;20.10;96.40
25154;DHT22;47555;51.038;6.280;2023-06-22T01:47:54;20.10;96.80
25154;DHT22;47555;51.038;6.280;2023-06-22T01:50:21;20.10;97.00
25154;DHT22;47555;51.038;6.280;2023-06-22T01:52:46;20.10;97.50
25154;DHT22;47555;51.038;6.280;2023-06-22T01:55:12;20.10;97.90
25154;DHT22;47555;51.038;6.280;2023-06-22T01:57:37;20.10;98.30
25154;DHT22;47555;51.038;6.280;2023-06-22T02:00:04;20.10;98.40
25154;DHT22;47555;51.038;6.280;2023-06-22T02:02:43;20.20;99.10
25154;DHT22;47555;51.038;6.280;2023-06-22T02:05:15;20.10;99.30
25154;DHT22;47555;51.038;6.280;2023-06-22T02:07:46;20.10;99.70
25154;DHT22;47555;51.038;6.280;2023-06-22T02:10:14;20.10;99.70
25154;DHT22;47555;51.038;6.280;2023-06-22T02:12:42;20.10;99.90
25154;DHT22;47555;51.038;6.280;2023-06-22T02:15:09;20.10;99.90
25154;DHT22;47555;51.038;6.280;2023-06-22T02:17:35;20.10;99.90
25154;DHT22;47555;51.038;6.280;2023-06-22T02:20:02;20.10;99.90
25154;DHT22;47555;51.038;6.280;2023-06-22T02:22:34;20.10;99.90
25154;DHT22;47555;51.038;6.280;2023-06-22T02:24:59;20.10;99.90
25154;DHT22;47555;51.038;6.280;2023-06-22T02:27:25;20.20;99.90
25154;DHT22;47555;51.038;6.280;2023-06-22T02:29:50;20.20;99.90
25154;DHT22;47555;51.038;6.280;2023-06-22T02:32:16;20.20;99.90
25154;DHT22;47555;51.038;6.280;2023-06-22T02:34:43;20.20;99.90
25154;DHT22;47555;51.038;6.280;2023-06-22T02:37:13;20.20;99.90
25154;DHT22;47555;51.038;6.280;2023-06-22T02:39:40;20.20;99.90
25154;DHT22;47555;51.038;6.280;2023-06-22T02:42:06;20.30;99.90
25154;DHT22;47555;51.038;6.280;2023-06-22T02:44:31;20.20;99.90
25154;DHT22;47555;51.038;6.280;2023-06-22T02:46:57;20.20;99.90
25154;DHT22;47555;51.038;6.280;2023-06-22T02:49:23;20.30;99.90
25154;DHT22;47555;51.038;6.280;2023-06-22T02:51:48;20.30;99.90
25154;DHT22;47555;51.038;6.280;2023-06-22T02:54:14;20.30;99.90
25154;DHT22;47555;51.038;6.280;2023-06-22T02:56:40;20.30;99.90
25154;DHT22;47555;51.038;6.280;2023-06-22T02:59:06;20.30;99.90
25154;DHT22;47555;51.038;6.280;2023-06-22T03:01:32;20.30;99.90
25154;DHT22;47555;51.038;6.280;2023-06-22T03:04:03;20.30;99.90
25154;DHT22;47555;51.038;6.280;2023-06-22T03:06:29;20.30;99.90
25154;DHT22;47555;51.038;6.280;2023-06-22T03:09:02;20.20;99.90
25154;DHT22;47555;51.038;6.280;2023-06-22T03:11:29;20.30;99.90
25154;DHT22;47555;51.038;6.280;2023-06-22T03:13:55;20.20;99.90
25154;DHT22;47555;51.038;6.280;2023-06-22T03:16:21;20.20;99.90
25154;DHT22;47555;51.038;6.280;2023-06-22T03:18:46;20.30;99.90
25154;DHT22;47555;51.038;6.280;2023-06-22T03:21:12;20.20;99.90
25154;DHT22;47555;51.038;6.280;2023-06-22T03:23:37;20.20;99.90
25154;DHT22;47555;51.038;6.280;2023-06-22T03:26:03;20.20;99.90
25154;DHT22;47555;51.038;6.280;2023-06-22T03:28:29;20.30;99.90
25154;DHT22;47555;51.038;6.280;2023-06-22T03:30:57;20.20;99.90
25154;DHT22;47555;51.038;6.280;2023-06-22T03:33:23;20.10;99.90
25154;DHT22;47555;51.038;6.280;2023-06-22T03:35:48;20.10;99.90
25154;DHT22;47555;51.038;6.280;2023-06-22T03:38:16;20.10;99.90
25154;DHT22;47555;51.038;6.280;2023-06-22T03:40:41;20.10;99.90
25154;DHT22;47555;51.038;6.280;2023-06-22T03:43:07;20.10;99.90
25154;DHT22;47555;51.038;6.280;2023-06-22T03:45:32;20.00;99.90
25154;DHT22;47555;51.038;6.280;2023-06-22T03:47:58;20.00;99.90
25154;DHT22;47555;51.038;6.280;2023-06-22T03:50:23;20.10;99.90
25154;DHT22;47555;51.038;6.280;2023-06-22T03:52:49;20.10;99.90
25154;DHT22;47555;51.038;6.280;2023-06-22T03:55:17;20.00;99.90
25154;DHT22;47555;51.038;6.280;2023-06-22T03:57:42;20.00;99.90
25154;DHT22;47555;51.038;6.280;2023-06-22T04:00:08;20.00;99.90
25154;DHT22;47555;51.038;6.280;2023-06-22T04:02:35;20.00;99.90
25154;DHT22;47555;51.038;6.280;2023-06-22T04:05:01;20.00;99.90
25154;DHT22;47555;51.038;6.280;2023-06-22T04:07:26;20.00;99.90
25154;DHT22;47555;51.038;6.280;2023-06-22T04:09:52;20.00;99.90
25154;DHT22;47555;51.038;6.280;2023-06-22T04:12:17;20.00;99.90
25154;DHT22;47555;51.038;6.280;2023-06-22T04:14:43;20.00;99.90
25154;DHT22;47555;51.038;6.280;2023-06-22T04:17:08;20.00;99.90
25154;DHT22;47555;51.038;6.280;2023-06-22T04:19:34;20.10;99.90
25154;DHT22;47555;51.038;6.280;2023-06-22T04:21:59;20.10;99.90
25154;DHT22;47555;51.038;6.280;2023-06-22T04:24:25;20.10;99.90
25154;DHT22;47555;51.038;6.280;2023-06-22T04:26:50;20.10;99.90
25154;DHT22;47555;51.038;6.280;2023-06-22T04:29:20;20.10;99.90
25154;DHT22;47555;51.038;6.280;2023-06-22T04:31:46;20.10;99.90
25154;DHT22;47555;51.038;6.280;2023-06-22T04:34:16;20.10;99.90
25154;DHT22;47555;51.038;6.280;2023-06-22T04:36:42;20.10;99.90
25154;DHT22;47555;51.038;6.280;2023-06-22T04:39:11;20.10;99.90
25154;DHT22;47555;51.038;6.280;2023-06-22T04:41:38;20.10;99.90
25154;DHT22;47555;51.038;6.280;2023-06-22T04:44:14;20.20;99.90
25154;DHT22;47555;51.038;6.280;2023-06-22T04:46:54;20.20;99.90
25154;DHT22;47555;51.038;6.280;2023-06-22T04:49:25;20.30;99.90
25154;DHT22;47555;51.038;6.280;2023-06-22T04:51:58;20.30;99.90
25154;DHT22;47555;51.038;6.280;2023-06-22T04:54:24;20.40;99.90
25154;DHT22;47555;51.038;6.280;2023-06-22T04:56:50;20.40;99.90
25154;DHT22;47555;51.038;6.280;2023-06-22T04:59:22;20.30;99.90
25154;DHT22;47555;51.038;6.280;2023-06-22T05:01:47;20.40;99.90
25154;DHT22;47555;51.038;6.280;2023-06-22T05:04:14;20.40;99.90
25154;DHT22;47555;51.038;6.280;2023-06-22T05:06:39;20.40;99.90
25154;DHT22;47555;51.038;6.280;2023-06-22T05:09:05;20.50;99.90
25154;DHT22;47555;51.038;6.280;2023-06-22T05:11:30;20.50;99.90
25154;DHT22;47555;51.038;6.280;2023-06-22T05:13:56;20.50;99.90
25154;DHT22;47555;51.038;6.280;2023-06-22T05:16:22;20.60;99.90
25154;DHT22;47555;51.038;6.280;2023-06-22T05:18:54;20.60;99.90
25154;DHT22;47555;51.038;6.280;2023-06-22T05:21:22;20.60;99.90
25154;DHT22;47555;51.038;6.280;2023-06-22T05:23:49;20.60;99.90
25154;DHT22;47555;51.038;6.280;2023-06-22T05:26:14;20.60;99.90
25154;DHT22;47555;51.038;6.280;2023-06-22T05:28:40;20.60;99.90
25154;DHT22;47555;51.038;6.280;2023-06-22T05:31:05;20.60;99.90
25154;DHT22;47555;51.038;6.280;2023-06-22T05:33:31;20.70;99.90
25154;DHT22;47555;51.038;6.280;2023-06-22T05:35:56;20.70;99.90
25154;DHT22;47555;51.038;6.280;2023-06-22T05:38:22;20.70;99.90
25154;DHT22;47555;51.038;6.280;2023-06-22T05:40:47;20.70;99.90
25154;DHT22;47555;51.038;6.280;2023-06-22T05:43:13;20.70;99.90
25154;DHT22;47555;51.038;6.280;2023-06-22T05:45:38;20.70;99.90
25154;DHT22;47555;51.038;6.280;2023-06-22T05:48:04;20.70;99.90
25154;DHT22;47555;51.038;6.280;2023-06-22T05:50:30;20.80;99.90
25154;DHT22;47555;51.038;6.280;2023-06-22T05:52:55;20.80;99.90
25154;DHT22;47555;51.038;6.280;2023-06-22T05:55:21;20.80;99.90
25154;DHT22;47555;51.038;6.280;2023-06-22T05:57:46;20.80;99.90
25154;DHT22;47555;51.038;6.280;2023-06-22T06:00:13;20.80;99.90
25154;DHT22;47555;51.038;6.280;2023-06-22T06:02:40;20.80;99.90
25154;DHT22;47555;51.038;6.280;2023-06-22T06:05:10;20.80;99.90
25154;DHT22;47555;51.038;6.280;2023-06-22T06:07:35;20.90;99.90
25154;DHT22;47555;51.038;6.280;2023-06-22T06:10:02;20.90;99.90
25154;DHT22;47555;51.038;6.280;2023-06-22T06:12:29;21.00;99.90
25154;DHT22;47555;51.038;6.280;2023-06-22T06:14:55;21.00;99.90
25154;DHT22;47555;51.038;6.280;2023-06-22T06:17:21;21.00;99.90
25154;DHT22;47555;51.038;6.280;2023-06-22T06:19:47;21.10;99.90
25154;DHT22;47555;51.038;6.280;2023-06-22T06:22:12;21.10;99.90
25154;DHT22;47555;51.038;6.280;2023-06-22T06:24:38;21.10;99.90
25154;DHT22;47555;51.038;6.280;2023-06-22T06:27:04;21.10;99.90
25154;DHT22;47555;51.038;6.280;2023-06-22T06:29:31;21.20;99.90
25154;DHT22;47555;51.038;6.280;2023-06-22T06:31:56;21.20;99.90
25154;DHT22;47555;51.038;6.280;2023-06-22T06:34:22;21.20;99.90
25154;DHT22;47555;51.038;6.280;2023-06-22T06:36:48;21.20;99.90
25154;DHT22;47555;51.038;6.280;2023-06-22T06:39:13;21.20;99.90
25154;DHT22;47555;51.038;6.280;2023-06-22T06:41:39;21.30;99.90
25154;DHT22;47555;51.038;6.280;2023-06-22T06:44:04;21.30;99.90
25154;DHT22;47555;51.038;6.280;2023-06-22T06:46:30;21.40;99.90
25154;DHT22;47555;51.038;6.280;2023-06-22T06:48:55;21.40;99.90
25154;DHT22;47555;51.038;6.280;2023-06-22T06:51:21;21.40;99.90
25154;DHT22;47555;51.038;6.280;2023-06-22T06:53:47;21.30;99.90
25154;DHT22;47555;51.038;6.280;2023-06-22T06:56:12;21.40;99.90
25154;DHT22;47555;51.038;6.280;2023-06-22T06:58:41;21.40;99.90
25154;DHT22;47555;51.038;6.280;2023-06-22T07:01:08;21.40;99.90
25154;DHT22;47555;51.038;6.280;2023-06-22T07:03:33;21.40;99.90
25154;DHT22;47555;51.038;6.280;2023-06-22T07:05:59;21.50;99.90
25154;DHT22;47555;51.038;6.280;2023-06-22T07:08:25;21.50;99.90
25154;DHT22;47555;51.038;6.280;2023-06-22T07:10:52;21.50;99.90
25154;DHT22;47555;51.038;6.280;2023-06-22T07:13:17;21.70;99.90
25154;DHT22;47555;51.038;6.280;2023-06-22T07:15:43;21.90;99.90
25154;DHT22;47555;51.038;6.280;2023-06-22T07:18:08;21.90;99.90
25154;DHT22;47555;51.038;6.280;2023-06-22T07:20:34;22.00;99.90
25154;DHT22;47555;51.038;6.280;2023-06-22T07:23:00;22.10;99.90
25154;DHT22;47555;51.038;6.280;2023-06-22T07:25:25;22.20;98.70
25154;DHT22;47555;51.038;6.280;2023-06-22T07:28:02;22.30;99.70
25154;DHT22;47555;51.038;6.280;2023-06-22T07:30:29;22.60;97.10
25154;DHT22;47555;51.038;6.280;2023-06-22T07:32:55;22.80;96.90
25154;DHT22;47555;51.038;6.280;2023-06-22T07:35:21;23.00;94.10
25154;DHT22;47555;51.038;6.280;2023-06-22T07:37:46;23.30;91.80
25154;DHT22;47555;51.038;6.280;2023-06-22T07:40:12;23.50;91.60
25154;DHT22;47555;51.038;6.280;2023-06-22T07:42:38;23.70;89.60
25154;DHT22;47555;51.038;6.280;2023-06-22T07:45:04;23.80;85.50
25154;DHT22;47555;51.038;6.280;2023-06-22T07:47:31;23.90;85.80
25154;DHT22;47555;51.038;6.280;2023-06-22T07:50:00;23.90;89.70
25154;DHT22;47555;51.038;6.280;2023-06-22T07:52:27;24.00;85.60
25154;DHT22;47555;51.038;6.280;2023-06-22T07:54:53;24.00;83.80
25154;DHT22;47555;51.038;6.280;2023-06-22T07:57:20;24.10;86.00
25154;DHT22;47555;51.038;6.280;2023-06-22T07:59:45;24.20;87.00
25154;DHT22;47555;51.038;6.280;2023-06-22T08:02:11;24.40;86.50
25154;DHT22;47555;51.038;6.280;2023-06-22T08:04:37;24.50;85.80
25154;DHT22;47555;51.038;6.280;2023-06-22T08:07:02;24.70;84.70
25154;DHT22;47555;51.038;6.280;2023-06-22T08:09:30;24.90;80.10
25154;DHT22;47555;51.038;6.280;2023-06-22T08:11:56;25.10;82.80
25154;DHT22;47555;51.038;6.280;2023-06-22T08:14:23;25.40;81.60
25154;DHT22;47555;51.038;6.280;2023-06-22T08:16:49;25.50;81.00
25154;DHT22;47555;51.038;6.280;2023-06-22T08:19:14;25.60;79.70
25154;DHT22;47555;51.038;6.280;2023-06-22T08:21:40;25.60;79.60
25154;DHT22;47555;51.038;6.280;2023-06-22T08:24:06;25.70;77.30
25154;DHT22;47555;51.038;6.280;2023-06-22T08:26:32;25.90;78.00
25154;DHT22;47555;51.038;6.280;2023-06-22T08:29:01;26.00;77.30
25154;DHT22;47555;51.038;6.280;2023-06-22T08:31:27;26.10;75.20
25154;DHT22;47555;51.038;6.280;2023-06-22T08:33:53;26.10;75.80
25154;DHT22;47555;51.038;6.280;2023-06-22T08:36:18;26.30;76.60
25154;DHT22;47555;51.038;6.280;2023-06-22T08:38:44;26.20;72.80
25154;DHT22;47555;51.038;6.280;2023-06-22T08:41:10;26.20;74.90
25154;DHT22;47555;51.038;6.280;2023-06-22T08:43:36;26.30;74.20
25154;DHT22;47555;51.038;6.280;2023-06-22T08:46:01;26.30;75.40
25154;DHT22;47555;51.038;6.280;2023-06-22T08:48:28;26.40;75.40
25154;DHT22;47555;51.038;6.280;2023-06-22T08:50:53;26.50;75.20
25154;DHT22;47555;51.038;6.280;2023-06-22T08:53:19;26.60;73.10
25154;DHT22;47555;51.038;6.280;2023-06-22T08:55:45;26.60;73.90
25154;DHT22;47555;51.038;6.280;2023-06-22T08:58:10;26.60;73.70
25154;DHT22;47555;51.038;6.280;2023-06-22T09:00:36;26.50;75.60
25154;DHT22;47555;51.038;6.280;2023-06-22T09:03:02;26.60;77.00
25154;DHT22;47555;51.038;6.280;2023-06-22T09:05:28;26.60;76.60
25154;DHT22;47555;51.038;6.280;2023-06-22T09:07:56;26.80;74.00
25154;DHT22;47555;51.038;6.280;2023-06-22T09:10:22;26.90;72.60
25154;DHT22;47555;51.038;6.280;2023-06-22T09:12:47;27.00;70.10
25154;DHT22;47555;51.038;6.280;2023-06-22T09:15:13;27.00;71.40
25154;DHT22;47555;51.038;6.280;2023-06-22T09:17:40;27.10;69.20
25154;DHT22;47555;51.038;6.280;2023-06-22T09:20:06;27.30;69.60
25154;DHT22;47555;51.038;6.280;2023-06-22T09:22:32;27.60;65.10
25154;DHT22;47555;51.038;6.280;2023-06-22T09:24:58;27.80;63.00
25154;DHT22;47555;51.038;6.280;2023-06-22T09:27:25;28.00;59.60
25154;DHT22;47555;51.038;6.280;2023-06-22T09:29:50;28.10;64.10
25154;DHT22;47555;51.038;6.280;2023-06-22T09:32:16;28.20;60.50
25154;DHT22;47555;51.038;6.280;2023-06-22T09:34:41;28.30;59.20
25154;DHT22;47555;51.038;6.280;2023-06-22T09:37:07;28.30;61.80
25154;DHT22;47555;51.038;6.280;2023-06-22T09:39:32;28.20;57.90
25154;DHT22;47555;51.038;6.280;2023-06-22T09:41:59;28.10;60.90
25154;DHT22;47555;51.038;6.280;2023-06-22T09:44:25;28.10;59.90
25154;DHT22;47555;51.038;6.280;2023-06-22T09:46:51;28.00;62.00
25154;DHT22;47555;51.038;6.280;2023-06-22T09:49:17;27.90;62.30
25154;DHT22;47555;51.038;6.280;2023-06-22T09:51:42;27.70;60.50
25154;DHT22;47555;51.038;6.280;2023-06-22T09:54:08;27.60;62.00
25154;DHT22;47555;51.038;6.280;2023-06-22T09:56:33;27.30;64.60
25154;DHT22;47555;51.038;6.280;2023-06-22T09:58:59;27.10;66.00
25154;DHT22;47555;51.038;6.280;2023-06-22T10:01:25;27.00;65.80
25154;DHT22;47555;51.038;6.280;2023-06-22T10:03:52;26.90;64.90
25154;DHT22;47555;51.038;6.280;2023-06-22T10:06:20;26.70;68.50
25154;DHT22;47555;51.038;6.280;2023-06-22T10:08:45;26.60;71.00
25154;DHT22;47555;51.038;6.280;2023-06-22T10:11:11;26.40;72.10
25154;DHT22;47555;51.038;6.280;2023-06-22T10:13:36;26.30;73.30
25154;DHT22;47555;51.038;6.280;2023-06-22T10:16:02;26.20;74.30
25154;DHT22;47555;51.038;6.280;2023-06-22T10:18:27;26.20;75.30
25154;DHT22;47555;51.038;6.280;2023-06-22T10:20:53;26.20;76.30
25154;DHT22;47555;51.038;6.280;2023-06-22T10:23:19;26.10;77.50
25154;DHT22;47555;51.038;6.280;2023-06-22T10:25:45;26.10;79.20
25154;DHT22;47555;51.038;6.280;2023-06-22T10:28:11;26.00;81.10
25154;DHT22;47555;51.038;6.280;2023-06-22T10:30:38;26.00;83.90
25154;DHT22;47555;51.038;6.280;2023-06-22T10:33:04;25.90;86.40
25154;DHT22;47555;51.038;6.280;2023-06-22T10:35:29;25.80;89.00
25154;DHT22;47555;51.038;6.280;2023-06-22T10:37:55;25.70;90.80
25154;DHT22;47555;51.038;6.280;2023-06-22T10:40:21;25.60;93.60
25154;DHT22;47555;51.038;6.280;2023-06-22T10:42:47;25.60;94.10
25154;DHT22;47555;51.038;6.280;2023-06-22T10:45:12;25.40;95.20
25154;DHT22;47555;51.038;6.280;2023-06-22T10:47:38;25.30;99.90
25154;DHT22;47555;51.038;6.280;2023-06-22T10:50:06;25.20;99.90
25154;DHT22;47555;51.038;6.280;2023-06-22T10:52:31;25.10;99.90
25154;DHT22;47555;51.038;6.280;2023-06-22T10:54:57;24.90;99.90
25154;DHT22;47555;51.038;6.280;2023-06-22T10:57:23;24.70;99.90
25154;DHT22;47555;51.038;6.280;2023-06-22T10:59:49;24.60;99.90
25154;DHT22;47555;51.038;6.280;2023-06-22T11:02:14;24.40;99.90
25154;DHT22;47555;51.038;6.280;2023-06-22T11:04:40;24.30;99.90
25154;DHT22;47555;51.038;6.280;2023-06-22T11:07:06;24.20;99.90
25154;DHT22;47555;51.038;6.280;2023-06-22T11:09:32;24.10;99.90
25154;DHT22;47555;51.038;6.280;2023-06-22T11:11:58;24.10;99.90
25154;DHT22;47555;51.038;6.280;2023-06-22T11:14:24;24.00;99.90
25154;DHT22;47555;51.038;6.280;2023-06-22T11:16:50;23.90;99.90
25154;DHT22;47555;51.038;6.280;2023-06-22T11:19:16;23.90;99.90
25154;DHT22;47555;51.038;6.280;2023-06-22T11:21:41;23.90;99.90
25154;DHT22;47555;51.038;6.280;2023-06-22T11:24:07;23.90;99.90
25154;DHT22;47555;51.038;6.280;2023-06-22T11:26:33;23.80;99.90
25154;DHT22;47555;51.038;6.280;2023-06-22T11:28:58;23.80;99.90
25154;DHT22;47555;51.038;6.280;2023-06-22T11:31:24;23.80;99.90
25154;DHT22;47555;51.038;6.280;2023-06-22T11:33:50;23.70;99.90
25154;DHT22;47555;51.038;6.280;2023-06-22T11:36:15;23.80;99.90
25154;DHT22;47555;51.038;6.280;2023-06-22T11:38:42;23.90;99.90
25154;DHT22;47555;51.038;6.280;2023-06-22T11:41:09;24.00;99.90
25154;DHT22;47555;51.038;6.280;2023-06-22T11:43:35;24.30;99.90
25154;DHT22;47555;51.038;6.280;2023-06-22T11:46:02;24.50;99.90
25154;DHT22;47555;51.038;6.280;2023-06-22T11:48:28;24.70;99.90
25154;DHT22;47555;51.038;6.280;2023-06-22T11:50:53;24.80;99.90
25154;DHT22;47555;51.038;6.280;2023-06-22T11:53:21;24.90;99.90
25154;DHT22;47555;51.038;6.280;2023-06-22T11:55:47;25.00;99.90
25154;DHT22;47555;51.038;6.280;2023-06-22T11:58:12;25.00;99.90
25154;DHT22;47555;51.038;6.280;2023-06-22T12:00:38;24.90;99.90
25154;DHT22;47555;51.038;6.280;2023-06-22T12:03:04;24.90;99.90
25154;DHT22;47555;51.038;6.280;2023-06-22T12:05:29;24.90;99.90
25154;DHT22;47555;51.038;6.280;2023-06-22T12:07:58;25.00;99.90
25154;DHT22;47555;51.038;6.280;2023-06-22T12:10:25;25.10;99.90
25154;DHT22;47555;51.038;6.280;2023-06-22T12:12:50;25.10;99.90
25154;DHT22;47555;51.038;6.280;2023-06-22T12:15:16;25.20;99.90
25154;DHT22;47555;51.038;6.280;2023-06-22T12:17:42;25.20;99.90
25154;DHT22;47555;51.038;6.280;2023-06-22T12:20:08;25.20;99.90
25154;DHT22;47555;51.038;6.280;2023-06-22T12:22:34;25.10;99.90
25154;DHT22;47555;51.038;6.280;2023-06-22T12:25:00;24.90;99.90
25154;DHT22;47555;51.038;6.280;2023-06-22T12:27:26;24.80;99.90
25154;DHT22;47555;51.038;6.280;2023-06-22T12:29:51;24.60;99.90
25154;DHT22;47555;51.038;6.280;2023-06-22T12:32:17;24.50;99.90
25154;DHT22;47555;51.038;6.280;2023-06-22T12:34:43;24.40;99.90
25154;DHT22;47555;51.038;6.280;2023-06-22T12:37:09;24.30;99.90
25154;DHT22;47555;51.038;6.280;2023-06-22T12:39:35;24.10;99.90
25154;DHT22;47555;51.038;6.280;2023-06-22T12:42:00;24.10;99.90
25154;DHT22;47555;51.038;6.280;2023-06-22T12:44:26;24.20;99.90
25154;DHT22;47555;51.038;6.280;2023-06-22T12:46:51;24.20;99.90
25154;DHT22;47555;51.038;6.280;2023-06-22T12:49:17;24.20;99.90
25154;DHT22;47555;51.038;6.280;2023-06-22T12:51:43;24.30;99.90
25154;DHT22;47555;51.038;6.280;2023-06-22T12:54:09;24.20;99.90
25154;DHT22;47555;51.038;6.280;2023-06-22T12:56:35;24.30;99.90
25154;DHT22;47555;51.038;6.280;2023-06-22T12:59:00;24.30;99.90
25154;DHT22;47555;51.038;6.280;2023-06-22T13:01:29;24.30;99.90
25154;DHT22;47555;51.038;6.280;2023-06-22T13:03:58;24.20;99.90
25154;DHT22;47555;51.038;6.280;2023-06-22T13:06:24;24.30;99.90
25154;DHT22;47555;51.038;6.280;2023-06-22T13:08:50;24.30;99.90
25154;DHT22;47555;51.038;6.280;2023-06-22T13:11:15;24.30;99.90
25154;DHT22;47555;51.038;6.280;2023-06-22T13:13:41;24.40;99.90
25154;DHT22;47555;51.038;6.280;2023-06-22T13:16:07;24.50;99.90
25154;DHT22;47555;51.038;6.280;2023-06-22T13:18:32;24.60;99.90
25154;DHT22;47555;51.038;6.280;2023-06-22T13:21:04;24.70;99.90
25154;DHT22;47555;51.038;6.280;2023-06-22T13:23:29;24.70;99.90
25154;DHT22;47555;51.038;6.280;2023-06-22T13:25:55;24.60;99.90
25154;DHT22;47555;51.038;6.280;2023-06-22T13:28:21;24.50;99.90
25154;DHT22;47555;51.038;6.280;2023-06-22T13:30:47;24.40;99.90
25154;DHT22;47555;51.038;6.280;2023-06-22T13:33:13;24.30;99.90
25154;DHT22;47555;51.038;6.280;2023-06-22T13:35:39;24.20;99.90
25154;DHT22;47555;51.038;6.280;2023-06-22T13:38:05;24.10;99.90
25154;DHT22;47555;51.038;6.280;2023-06-22T13:40:30;24.10;99.90
25154;DHT22;47555;51.038;6.280;2023-06-22T13:42:56;24.10;99.90
25154;DHT22;47555;51.038;6.280;2023-06-22T13:45:22;24.00;99.90
25154;DHT22;47555;51.038;6.280;2023-06-22T13:47:47;23.90;99.90
25154;DHT22;47555;51.038;6.280;2023-06-22T13:50:13;23.80;99.90
25154;DHT22;47555;51.038;6.280;2023-06-22T13:52:39;23.80;99.90
25154;DHT22;47555;51.038;6.280;2023-06-22T13:55:05;23.80;99.90
25154;DHT22;47555;51.038;6.280;2023-06-22T13:57:32;23.70;99.90
25154;DHT22;47555;51.038;6.280;2023-06-22T13:59:58;23.80;99.90
25154;DHT22;47555;51.038;6.280;2023-06-22T14:02:23;23.70;99.90
25154;DHT22;47555;51.038;6.280;2023-06-22T14:04:49;23.60;99.90
25154;DHT22;47555;51.038;6.280;2023-06-22T14:07:14;23.60;99.90
25154;DHT22;47555;51.038;6.280;2023-06-22T14:09:40;23.60;99.90
25154;DHT22;47555;51.038;6.280;2023-06-22T14:12:06;23.50;99.90
25154;DHT22;47555;51.038;6.280;2023-06-22T14:14:33;23.50;99.90
25154;DHT22;47555;51.038;6.280;2023-06-22T14:16:59;23.40;99.90
25154;DHT22;47555;51.038;6.280;2023-06-22T14:19:24;23.30;99.90
25154;DHT22;47555;51.038;6.280;2023-06-22T14:21:50;23.20;99.90
25154;DHT22;47555;51.038;6.280;2023-06-22T14:24:15;23.10;99.90
25154;DHT22;47555;51.038;6.280;2023-06-22T14:26:41;23.10;99.90
25154;DHT22;47555;51.038;6.280;2023-06-22T14:29:06;23.00;99.90
25154;DHT22;47555;51.038;6.280;2023-06-22T14:31:32;22.90;99.90
25154;DHT22;47555;51.038;6.280;2023-06-22T14:33:58;22.80;99.90
25154;DHT22;47555;51.038;6.280;2023-06-22T14:36:23;22.80;99.90
25154;DHT22;47555;51.038;6.280;2023-06-22T14:38:49;22.80;99.90
25154;DHT22;47555;51.038;6.280;2023-06-22T14:41:14;22.70;99.90
25154;DHT22;47555;51.038;6.280;2023-06-22T14:43:47;22.60;99.90
25154;DHT22;47555;51.038;6.280;2023-06-22T14:46:14;22.60;99.90
25154;DHT22;47555;51.038;6.280;2023-06-22T14:48:40;22.50;99.90
25154;DHT22;47555;51.038;6.280;2023-06-22T14:51:05;22.30;99.90
25154;DHT22;47555;51.038;6.280;2023-06-22T14:53:31;22.30;99.90
25154;DHT22;47555;51.038;6.280;2023-06-22T14:55:56;22.20;99.90
25154;DHT22;47555;51.038;6.280;2023-06-22T14:58:22;22.10;99.90
25154;DHT22;47555;51.038;6.280;2023-06-22T15:00:47;22.10;99.90
25154;DHT22;47555;51.038;6.280;2023-06-22T15:03:13;22.00;99.90
25154;DHT22;47555;51.038;6.280;2023-06-22T15:05:43;22.00;99.90
25154;DHT22;47555;51.038;6.280;2023-06-22T15:08:09;21.90;99.90
25154;DHT22;47555;51.038;6.280;2023-06-22T15:10:35;21.90;99.90
25154;DHT22;47555;51.038;6.280;2023-06-22T15:13:00;21.80;99.90
25154;DHT22;47555;51.038;6.280;2023-06-22T15:15:26;21.80;99.90
25154;DHT22;47555;51.038;6.280;2023-06-22T15:17:52;21.70;99.90
25154;DHT22;47555;51.038;6.280;2023-06-22T15:20:17;21.60;99.90
25154;DHT22;47555;51.038;6.280;2023-06-22T15:22:43;21.50;99.90
25154;DHT22;47555;51.038;6.280;2023-06-22T15:25:08;21.50;99.90
25154;DHT22;47555;51.038;6.280;2023-06-22T15:27:34;21.40;99.90